sensor_id;sensor_type;location;lat;lon;timestamp;P1;durP1;ratioP1;P2;durP2;ratioP2
61903;SDS011;47857;52.270;6.804;2023-09-30T00:02:06;24.67;;;5.93;;
61903;SDS011;47857;52.270;6.804;2023-09-30T00:04:32;18.67;;;4.68;;
61903;SDS011;47857;52.270;6.804;2023-09-30T00:06:57;17.55;;;4.82;;
61903;SDS011;47857;52.270;6.804;2023-09-30T00:09:23;24.38;;;5.57;;
61903;SDS011;47857;52.270;6.804;2023-09-30T00:11:48;17.00;;;4.82;;
61903;SDS011;47857;52.270;6.804;2023-09-30T00:14:14;17.30;;;5.43;;
61903;SDS011;47857;52.270;6.804;2023-09-30T00:16:39;23.30;;;7.07;;
61903;SDS011;47857;52.270;6.804;2023-09-30T00:19:05;18.05;;;6.20;;
61903;SDS011;47857;52.270;6.804;2023-09-30T00:21:31;16.13;;;7.53;;
61903;SDS011;47857;52.270;6.804;2023-09-30T00:23:56;14.45;;;5.40;;
61903;SDS011;47857;52.270;6.804;2023-09-30T00:26:22;23.70;;;5.18;;
61903;SDS011;47857;52.270;6.804;2023-09-30T00:28:48;24.38;;;5.28;;
61903;SDS011;47857;52.270;6.804;2023-09-30T00:31:13;19.58;;;5.32;;
61903;SDS011;47857;52.270;6.804;2023-09-30T00:33:39;20.10;;;4.88;;
61903;SDS011;47857;52.270;6.804;2023-09-30T00:36:08;17.85;;;5.10;;
61903;SDS011;47857;52.270;6.804;2023-09-30T00:38:34;20.42;;;5.38;;
61903;SDS011;47857;52.270;6.804;2023-09-30T00:40:59;21.67;;;5.30;;
61903;SDS011;47857;52.270;6.804;2023-09-30T00:43:25;20.42;;;5.43;;
61903;SDS011;47857;52.270;6.804;2023-09-30T00:48:33;20.98;;;5.32;;
61903;SDS011;47857;52.270;6.804;2023-09-30T00:50:59;18.10;;;5.05;;
61903;SDS011;47857;52.270;6.804;2023-09-30T00:53:25;24.02;;;5.78;;
61903;SDS011;47857;52.270;6.804;2023-09-30T00:55:50;19.55;;;5.07;;
61903;SDS011;47857;52.270;6.804;2023-09-30T00:58:17;20.50;;;5.32;;
61903;SDS011;47857;52.270;6.804;2023-09-30T01:00:43;20.33;;;4.93;;
61903;SDS011;47857;52.270;6.804;2023-09-30T01:03:09;16.75;;;4.93;;
61903;SDS011;47857;52.270;6.804;2023-09-30T01:05:35;18.98;;;4.70;;
61903;SDS011;47857;52.270;6.804;2023-09-30T01:08:01;25.08;;;5.40;;
61903;SDS011;47857;52.270;6.804;2023-09-30T01:10:28;20.88;;;4.93;;
61903;SDS011;47857;52.270;6.804;2023-09-30T01:12:53;15.68;;;4.38;;
61903;SDS011;47857;52.270;6.804;2023-09-30T01:15:19;18.08;;;4.93;;
61903;SDS011;47857;52.270;6.804;2023-09-30T01:17:45;21.98;;;5.22;;
61903;SDS011;47857;52.270;6.804;2023-09-30T01:20:11;15.85;;;5.15;;
61903;SDS011;47857;52.270;6.804;2023-09-30T01:22:45;17.63;;;5.50;;
61903;SDS011;47857;52.270;6.804;2023-09-30T01:25:10;18.20;;;5.32;;
61903;SDS011;47857;52.270;6.804;2023-09-30T01:27:36;19.83;;;5.68;;
61903;SDS011;47857;52.270;6.804;2023-09-30T01:30:02;19.40;;;5.80;;
61903;SDS011;47857;52.270;6.804;2023-09-30T01:32:28;18.38;;;5.03;;
61903;SDS011;47857;52.270;6.804;2023-09-30T01:34:53;17.48;;;5.38;;
61903;SDS011;47857;52.270;6.804;2023-09-30T01:37:19;23.13;;;6.10;;
61903;SDS011;47857;52.270;6.804;2023-09-30T01:39:44;17.88;;;5.80;;
61903;SDS011;47857;52.270;6.804;2023-09-30T01:42:10;22.52;;;6.43;;
61903;SDS011;47857;52.270;6.804;2023-09-30T01:44:36;23.33;;;6.30;;
61903;SDS011;47857;52.270;6.804;2023-09-30T01:47:02;16.92;;;5.90;;
61903;SDS011;47857;52.270;6.804;2023-09-30T01:49:27;22.10;;;6.22;;
61903;SDS011;47857;52.270;6.804;2023-09-30T01:51:54;20.77;;;6.68;;
61903;SDS011;47857;52.270;6.804;2023-09-30T01:54:20;18.88;;;6.35;;
61903;SDS011;47857;52.270;6.804;2023-09-30T01:56:45;18.33;;;5.80;;
61903;SDS011;47857;52.270;6.804;2023-09-30T01:59:11;21.60;;;6.13;;
61903;SDS011;47857;52.270;6.804;2023-09-30T02:01:36;21.58;;;6.60;;
61903;SDS011;47857;52.270;6.804;2023-09-30T02:04:02;21.20;;;6.70;;
61903;SDS011;47857;52.270;6.804;2023-09-30T02:06:27;21.13;;;6.22;;
61903;SDS011;47857;52.270;6.804;2023-09-30T02:08:53;20.05;;;6.72;;
61903;SDS011;47857;52.270;6.804;2023-09-30T02:11:18;23.35;;;6.68;;
61903;SDS011;47857;52.270;6.804;2023-09-30T02:13:44;22.33;;;6.50;;
61903;SDS011;47857;52.270;6.804;2023-09-30T02:16:13;22.50;;;6.28;;
61903;SDS011;47857;52.270;6.804;2023-09-30T02:18:39;21.63;;;6.40;;
61903;SDS011;47857;52.270;6.804;2023-09-30T02:21:06;21.42;;;7.20;;
61903;SDS011;47857;52.270;6.804;2023-09-30T02:23:34;20.27;;;7.07;;
61903;SDS011;47857;52.270;6.804;2023-09-30T02:26:01;17.48;;;6.50;;
61903;SDS011;47857;52.270;6.804;2023-09-30T02:28:28;25.50;;;6.93;;
61903;SDS011;47857;52.270;6.804;2023-09-30T02:30:54;20.70;;;8.40;;
61903;SDS011;47857;52.270;6.804;2023-09-30T02:33:20;25.42;;;8.60;;
61903;SDS011;47857;52.270;6.804;2023-09-30T02:35:45;25.02;;;9.70;;
61903;SDS011;47857;52.270;6.804;2023-09-30T02:38:12;29.48;;;9.05;;
61903;SDS011;47857;52.270;6.804;2023-09-30T02:40:38;23.58;;;9.20;;
61903;SDS011;47857;52.270;6.804;2023-09-30T02:43:05;20.73;;;9.13;;
61903;SDS011;47857;52.270;6.804;2023-09-30T02:45:30;22.73;;;9.52;;
61903;SDS011;47857;52.270;6.804;2023-09-30T02:47:56;23.70;;;13.20;;
61903;SDS011;47857;52.270;6.804;2023-09-30T02:50:21;28.90;;;13.35;;
61903;SDS011;47857;52.270;6.804;2023-09-30T02:52:47;30.10;;;16.33;;
61903;SDS011;47857;52.270;6.804;2023-09-30T02:55:12;38.17;;;18.42;;
61903;SDS011;47857;52.270;6.804;2023-09-30T02:57:39;34.30;;;17.92;;
61903;SDS011;47857;52.270;6.804;2023-09-30T03:00:05;28.92;;;18.25;;
61903;SDS011;47857;52.270;6.804;2023-09-30T03:02:51;39.00;;;21.98;;
61903;SDS011;47857;52.270;6.804;2023-09-30T03:05:18;51.05;;;27.17;;
61903;SDS011;47857;52.270;6.804;2023-09-30T03:07:44;158.02;;;113.35;;
61903;SDS011;47857;52.270;6.804;2023-09-30T03:10:10;349.52;;;257.65;;
61903;SDS011;47857;52.270;6.804;2023-09-30T03:12:38;415.02;;;255.35;;
61903;SDS011;47857;52.270;6.804;2023-09-30T03:15:03;733.50;;;435.52;;
61903;SDS011;47857;52.270;6.804;2023-09-30T03:17:32;1371.25;;;712.10;;
61903;SDS011;47857;52.270;6.804;2023-09-30T03:19:58;1999.90;;;999.90;;
61903;SDS011;47857;52.270;6.804;2023-09-30T03:22:24;1999.90;;;999.90;;
61903;SDS011;47857;52.270;6.804;2023-09-30T03:24:52;1999.90;;;999.90;;
61903;SDS011;47857;52.270;6.804;2023-09-30T03:27:19;1999.90;;;999.90;;
61903;SDS011;47857;52.270;6.804;2023-09-30T03:29:45;1999.90;;;999.90;;
61903;SDS011;47857;52.270;6.804;2023-09-30T03:32:11;1999.90;;;999.90;;
61903;SDS011;47857;52.270;6.804;2023-09-30T03:34:37;1999.90;;;999.90;;
61903;SDS011;47857;52.270;6.804;2023-09-30T03:37:02;1999.90;;;999.90;;
61903;SDS011;47857;52.270;6.804;2023-09-30T03:39:28;1999.90;;;999.90;;
61903;SDS011;47857;52.270;6.804;2023-09-30T03:41:57;1999.90;;;999.90;;
61903;SDS011;47857;52.270;6.804;2023-09-30T03:44:24;1999.90;;;999.90;;
61903;SDS011;47857;52.270;6.804;2023-09-30T03:46:51;1999.90;;;999.90;;
61903;SDS011;47857;52.270;6.804;2023-09-30T03:49:17;1999.90;;;999.90;;
61903;SDS011;47857;52.270;6.804;2023-09-30T03:51:45;1333.35;;;490.83;;
61903;SDS011;47857;52.270;6.804;2023-09-30T03:54:11;566.85;;;425.38;;
61903;SDS011;47857;52.270;6.804;2023-09-30T03:56:36;127.68;;;117.35;;
61903;SDS011;47857;52.270;6.804;2023-09-30T03:59:03;204.77;;;188.23;;
61903;SDS011;47857;52.270;6.804;2023-09-30T04:01:29;95.07;;;87.22;;
61903;SDS011;47857;52.270;6.804;2023-09-30T04:03:56;64.88;;;59.15;;
61903;SDS011;47857;52.270;6.804;2023-09-30T04:06:22;212.35;;;195.27;;
61903;SDS011;47857;52.270;6.804;2023-09-30T04:08:47;162.75;;;149.50;;
61903;SDS011;47857;52.270;6.804;2023-09-30T04:11:13;132.10;;;120.70;;
61903;SDS011;47857;52.270;6.804;2023-09-30T04:13:43;184.07;;;169.02;;
61903;SDS011;47857;52.270;6.804;2023-09-30T04:16:10;140.32;;;126.88;;
61903;SDS011;47857;52.270;6.804;2023-09-30T04:18:36;85.72;;;78.28;;
61903;SDS011;47857;52.270;6.804;2023-09-30T04:21:02;69.38;;;63.50;;
61903;SDS011;47857;52.270;6.804;2023-09-30T04:23:29;62.90;;;56.90;;
61903;SDS011;47857;52.270;6.804;2023-09-30T04:25:55;58.95;;;53.20;;
61903;SDS011;47857;52.270;6.804;2023-09-30T04:28:21;53.92;;;48.20;;
61903;SDS011;47857;52.270;6.804;2023-09-30T04:30:47;29.70;;;15.85;;
61903;SDS011;47857;52.270;6.804;2023-09-30T04:33:14;28.08;;;12.48;;
61903;SDS011;47857;52.270;6.804;2023-09-30T04:35:40;28.27;;;11.65;;
61903;SDS011;47857;52.270;6.804;2023-09-30T04:38:05;19.88;;;10.93;;
61903;SDS011;47857;52.270;6.804;2023-09-30T04:40:31;29.17;;;11.45;;
61903;SDS011;47857;52.270;6.804;2023-09-30T04:42:58;26.75;;;10.90;;
61903;SDS011;47857;52.270;6.804;2023-09-30T04:45:24;24.67;;;11.55;;
61903;SDS011;47857;52.270;6.804;2023-09-30T04:47:54;26.33;;;11.13;;
61903;SDS011;47857;52.270;6.804;2023-09-30T04:50:21;45.00;;;15.82;;
61903;SDS011;47857;52.270;6.804;2023-09-30T04:52:47;68.90;;;19.65;;
61903;SDS011;47857;52.270;6.804;2023-09-30T04:55:13;63.10;;;21.73;;
61903;SDS011;47857;52.270;6.804;2023-09-30T04:57:42;172.55;;;50.88;;
61903;SDS011;47857;52.270;6.804;2023-09-30T05:00:10;245.68;;;106.22;;
61903;SDS011;47857;52.270;6.804;2023-09-30T05:02:43;359.48;;;131.30;;
61903;SDS011;47857;52.270;6.804;2023-09-30T05:05:10;546.03;;;355.90;;
61903;SDS011;47857;52.270;6.804;2023-09-30T05:07:35;1999.90;;;780.83;;
61903;SDS011;47857;52.270;6.804;2023-09-30T05:10:01;1999.90;;;999.90;;
61903;SDS011;47857;52.270;6.804;2023-09-30T05:12:32;1999.90;;;764.00;;
61903;SDS011;47857;52.270;6.804;2023-09-30T05:14:58;471.23;;;224.88;;
61903;SDS011;47857;52.270;6.804;2023-09-30T05:17:24;1999.90;;;944.65;;
61903;SDS011;47857;52.270;6.804;2023-09-30T05:19:49;1999.90;;;662.42;;
61903;SDS011;47857;52.270;6.804;2023-09-30T05:22:15;596.30;;;268.33;;
61903;SDS011;47857;52.270;6.804;2023-09-30T05:24:43;1999.90;;;944.30;;
61903;SDS011;47857;52.270;6.804;2023-09-30T05:27:09;683.97;;;204.63;;
61903;SDS011;47857;52.270;6.804;2023-09-30T05:29:35;394.63;;;170.52;;
61903;SDS011;47857;52.270;6.804;2023-09-30T05:32:01;1999.90;;;947.20;;
61903;SDS011;47857;52.270;6.804;2023-09-30T05:34:26;1999.90;;;948.10;;
61903;SDS011;47857;52.270;6.804;2023-09-30T05:36:53;1999.90;;;999.90;;
61903;SDS011;47857;52.270;6.804;2023-09-30T05:39:18;1999.90;;;769.83;;
61903;SDS011;47857;52.270;6.804;2023-09-30T05:41:45;1926.45;;;649.20;;
61903;SDS011;47857;52.270;6.804;2023-09-30T05:44:12;1584.65;;;580.90;;
61903;SDS011;47857;52.270;6.804;2023-09-30T05:46:39;1710.05;;;606.78;;
61903;SDS011;47857;52.270;6.804;2023-09-30T05:49:05;1760.70;;;631.85;;
61903;SDS011;47857;52.270;6.804;2023-09-30T05:51:35;1951.35;;;700.47;;
61903;SDS011;47857;52.270;6.804;2023-09-30T05:54:00;1960.82;;;719.72;;
61903;SDS011;47857;52.270;6.804;2023-09-30T05:56:26;1941.93;;;719.72;;
61903;SDS011;47857;52.270;6.804;2023-09-30T05:58:52;1935.70;;;748.63;;
61903;SDS011;47857;52.270;6.804;2023-09-30T06:01:17;1562.18;;;637.60;;
61903;SDS011;47857;52.270;6.804;2023-09-30T06:03:45;1579.80;;;668.67;;
61903;SDS011;47857;52.270;6.804;2023-09-30T06:06:14;1682.47;;;705.90;;
61903;SDS011;47857;52.270;6.804;2023-09-30T06:08:43;1772.57;;;740.70;;
61903;SDS011;47857;52.270;6.804;2023-09-30T06:11:18;1750.15;;;756.30;;
61903;SDS011;47857;52.270;6.804;2023-09-30T06:13:47;1779.80;;;798.88;;
61903;SDS011;47857;52.270;6.804;2023-09-30T06:16:13;1546.88;;;755.60;;
61903;SDS011;47857;52.270;6.804;2023-09-30T06:18:38;1586.47;;;778.10;;
61903;SDS011;47857;52.270;6.804;2023-09-30T06:21:04;1999.90;;;903.13;;
61903;SDS011;47857;52.270;6.804;2023-09-30T06:23:30;1999.90;;;941.83;;
61903;SDS011;47857;52.270;6.804;2023-09-30T06:25:56;1946.05;;;921.08;;
61903;SDS011;47857;52.270;6.804;2023-09-30T06:28:22;1999.90;;;947.47;;
61903;SDS011;47857;52.270;6.804;2023-09-30T06:30:51;1724.28;;;864.65;;
61903;SDS011;47857;52.270;6.804;2023-09-30T06:33:17;1999.90;;;988.65;;
61903;SDS011;47857;52.270;6.804;2023-09-30T06:35:43;1999.90;;;996.20;;
61903;SDS011;47857;52.270;6.804;2023-09-30T06:38:16;1999.90;;;992.50;;
61903;SDS011;47857;52.270;6.804;2023-09-30T06:40:43;1999.90;;;999.90;;
61903;SDS011;47857;52.270;6.804;2023-09-30T06:43:08;1999.90;;;999.90;;
61903;SDS011;47857;52.270;6.804;2023-09-30T06:45:34;1999.90;;;999.90;;
61903;SDS011;47857;52.270;6.804;2023-09-30T06:48:04;1999.90;;;999.90;;
61903;SDS011;47857;52.270;6.804;2023-09-30T06:50:30;1999.90;;;999.90;;
61903;SDS011;47857;52.270;6.804;2023-09-30T06:52:57;1999.90;;;999.90;;
61903;SDS011;47857;52.270;6.804;2023-09-30T06:55:22;1999.90;;;985.63;;
61903;SDS011;47857;52.270;6.804;2023-09-30T06:57:47;1999.90;;;987.15;;
61903;SDS011;47857;52.270;6.804;2023-09-30T07:00:13;1999.90;;;999.90;;
61903;SDS011;47857;52.270;6.804;2023-09-30T07:02:40;1713.90;;;839.42;;
61903;SDS011;47857;52.270;6.804;2023-09-30T07:05:13;1882.13;;;878.50;;
61903;SDS011;47857;52.270;6.804;2023-09-30T07:07:40;745.58;;;635.95;;
61903;SDS011;47857;52.270;6.804;2023-09-30T07:10:08;966.70;;;683.55;;
61903;SDS011;47857;52.270;6.804;2023-09-30T07:12:34;1053.75;;;668.50;;
61903;SDS011;47857;52.270;6.804;2023-09-30T07:15:01;792.67;;;658.13;;
61903;SDS011;47857;52.270;6.804;2023-09-30T07:17:28;694.88;;;557.80;;
61903;SDS011;47857;52.270;6.804;2023-09-30T07:19:53;593.45;;;511.33;;
61903;SDS011;47857;52.270;6.804;2023-09-30T07:22:19;549.47;;;484.88;;
61903;SDS011;47857;52.270;6.804;2023-09-30T07:24:44;571.33;;;494.58;;
61903;SDS011;47857;52.270;6.804;2023-09-30T07:27:10;480.88;;;422.70;;
61903;SDS011;47857;52.270;6.804;2023-09-30T07:29:35;452.17;;;369.75;;
61903;SDS011;47857;52.270;6.804;2023-09-30T07:32:01;528.47;;;403.00;;
61903;SDS011;47857;52.270;6.804;2023-09-30T07:34:26;433.33;;;362.45;;
61903;SDS011;47857;52.270;6.804;2023-09-30T07:36:52;325.27;;;286.65;;
61903;SDS011;47857;52.270;6.804;2023-09-30T07:39:17;301.23;;;265.73;;
61903;SDS011;47857;52.270;6.804;2023-09-30T07:41:43;219.55;;;180.50;;
61903;SDS011;47857;52.270;6.804;2023-09-30T07:44:08;133.07;;;106.32;;
61903;SDS011;47857;52.270;6.804;2023-09-30T07:46:35;63.70;;;51.38;;
61903;SDS011;47857;52.270;6.804;2023-09-30T07:49:00;97.68;;;73.53;;
61903;SDS011;47857;52.270;6.804;2023-09-30T07:51:28;68.38;;;52.85;;
61903;SDS011;47857;52.270;6.804;2023-09-30T07:53:55;44.97;;;34.85;;
61903;SDS011;47857;52.270;6.804;2023-09-30T07:56:21;36.05;;;26.95;;
61903;SDS011;47857;52.270;6.804;2023-09-30T07:58:47;35.33;;;15.82;;
61903;SDS011;47857;52.270;6.804;2023-09-30T08:01:13;32.67;;;17.33;;
61903;SDS011;47857;52.270;6.804;2023-09-30T08:03:40;41.00;;;19.05;;
61903;SDS011;47857;52.270;6.804;2023-09-30T08:06:09;44.22;;;20.58;;
61903;SDS011;47857;52.270;6.804;2023-09-30T08:08:34;40.17;;;18.40;;
61903;SDS011;47857;52.270;6.804;2023-09-30T08:11:01;52.70;;;26.17;;
61903;SDS011;47857;52.270;6.804;2023-09-30T08:13:26;41.08;;;19.50;;
61903;SDS011;47857;52.270;6.804;2023-09-30T08:15:54;39.22;;;18.33;;
61903;SDS011;47857;52.270;6.804;2023-09-30T08:18:21;35.05;;;18.25;;
61903;SDS011;47857;52.270;6.804;2023-09-30T08:20:46;32.38;;;16.75;;
61903;SDS011;47857;52.270;6.804;2023-09-30T08:23:12;31.48;;;16.40;;
61903;SDS011;47857;52.270;6.804;2023-09-30T08:25:38;32.22;;;16.63;;
61903;SDS011;47857;52.270;6.804;2023-09-30T08:28:04;27.83;;;15.93;;
61903;SDS011;47857;52.270;6.804;2023-09-30T08:30:30;30.40;;;16.92;;
61903;SDS011;47857;52.270;6.804;2023-09-30T08:32:56;35.75;;;17.88;;
61903;SDS011;47857;52.270;6.804;2023-09-30T08:35:21;46.67;;;20.27;;
61903;SDS011;47857;52.270;6.804;2023-09-30T08:37:47;44.88;;;18.90;;
61903;SDS011;47857;52.270;6.804;2023-09-30T08:40:12;46.13;;;20.33;;
61903;SDS011;47857;52.270;6.804;2023-09-30T08:42:38;62.90;;;22.27;;
61903;SDS011;47857;52.270;6.804;2023-09-30T08:45:04;64.35;;;23.20;;
61903;SDS011;47857;52.270;6.804;2023-09-30T08:47:33;72.07;;;23.95;;
61903;SDS011;47857;52.270;6.804;2023-09-30T08:50:00;65.65;;;24.83;;
61903;SDS011;47857;52.270;6.804;2023-09-30T08:52:34;84.43;;;30.55;;
61903;SDS011;47857;52.270;6.804;2023-09-30T08:55:01;101.15;;;28.35;;
61903;SDS011;47857;52.270;6.804;2023-09-30T08:57:26;89.95;;;28.15;;
61903;SDS011;47857;52.270;6.804;2023-09-30T08:59:53;128.85;;;31.00;;
61903;SDS011;47857;52.270;6.804;2023-09-30T09:02:19;110.40;;;31.80;;
61903;SDS011;47857;52.270;6.804;2023-09-30T09:04:47;162.60;;;33.08;;
61903;SDS011;47857;52.270;6.804;2023-09-30T09:07:14;172.10;;;33.00;;
61903;SDS011;47857;52.270;6.804;2023-09-30T09:09:40;168.25;;;35.00;;
61903;SDS011;47857;52.270;6.804;2023-09-30T09:12:05;148.52;;;35.30;;
61903;SDS011;47857;52.270;6.804;2023-09-30T09:14:38;159.02;;;34.72;;
61903;SDS011;47857;52.270;6.804;2023-09-30T09:17:05;121.45;;;37.10;;
61903;SDS011;47857;52.270;6.804;2023-09-30T09:19:32;148.85;;;38.60;;
61903;SDS011;47857;52.270;6.804;2023-09-30T09:21:59;110.45;;;37.50;;
61903;SDS011;47857;52.270;6.804;2023-09-30T09:27:03;113.43;;;39.63;;
61903;SDS011;47857;52.270;6.804;2023-09-30T09:29:29;136.95;;;36.40;;
61903;SDS011;47857;52.270;6.804;2023-09-30T09:32:05;87.97;;;36.97;;
61903;SDS011;47857;52.270;6.804;2023-09-30T09:34:32;99.00;;;45.05;;
61903;SDS011;47857;52.270;6.804;2023-09-30T09:36:58;121.70;;;44.55;;
61903;SDS011;47857;52.270;6.804;2023-09-30T09:39:30;119.28;;;48.80;;
61903;SDS011;47857;52.270;6.804;2023-09-30T09:41:56;116.07;;;60.83;;
61903;SDS011;47857;52.270;6.804;2023-09-30T09:44:23;118.70;;;73.35;;
61903;SDS011;47857;52.270;6.804;2023-09-30T09:46:50;124.28;;;73.70;;
61903;SDS011;47857;52.270;6.804;2023-09-30T09:49:16;105.28;;;65.97;;
61903;SDS011;47857;52.270;6.804;2023-09-30T09:51:48;70.82;;;51.25;;
61903;SDS011;47857;52.270;6.804;2023-09-30T09:54:14;85.88;;;67.32;;
61903;SDS011;47857;52.270;6.804;2023-09-30T09:56:41;77.75;;;63.65;;
61903;SDS011;47857;52.270;6.804;2023-09-30T09:59:09;79.10;;;66.47;;
61903;SDS011;47857;52.270;6.804;2023-09-30T10:01:37;76.40;;;62.15;;
61903;SDS011;47857;52.270;6.804;2023-09-30T10:04:04;91.03;;;77.80;;
61903;SDS011;47857;52.270;6.804;2023-09-30T10:06:30;334.38;;;288.83;;
61903;SDS011;47857;52.270;6.804;2023-09-30T10:09:03;301.88;;;225.70;;
61903;SDS011;47857;52.270;6.804;2023-09-30T10:11:30;391.83;;;335.27;;
61903;SDS011;47857;52.270;6.804;2023-09-30T10:13:56;534.63;;;476.95;;
61903;SDS011;47857;52.270;6.804;2023-09-30T10:19:13;526.60;;;470.58;;
61903;SDS011;47857;52.270;6.804;2023-09-30T10:21:40;515.25;;;461.67;;
61903;SDS011;47857;52.270;6.804;2023-09-30T10:24:52;960.38;;;858.90;;
61903;SDS011;47857;52.270;6.804;2023-09-30T10:29:47;930.47;;;832.63;;
61903;SDS011;47857;52.270;6.804;2023-09-30T10:32:14;846.25;;;760.30;;
61903;SDS011;47857;52.270;6.804;2023-09-30T10:34:50;1041.35;;;919.92;;
61903;SDS011;47857;52.270;6.804;2023-09-30T10:37:21;1413.10;;;976.55;;
61903;SDS011;47857;52.270;6.804;2023-09-30T10:39:57;1360.03;;;952.75;;
61903;SDS011;47857;52.270;6.804;2023-09-30T10:51:11;1468.90;;;895.40;;
61903;SDS011;47857;52.270;6.804;2023-09-30T10:53:45;1208.38;;;781.45;;
61903;SDS011;47857;52.270;6.804;2023-09-30T10:56:12;1030.32;;;737.22;;
61903;SDS011;47857;52.270;6.804;2023-09-30T10:58:38;1068.75;;;713.60;;
61903;SDS011;47857;52.270;6.804;2023-09-30T11:01:05;680.72;;;503.67;;
61903;SDS011;47857;52.270;6.804;2023-09-30T11:03:30;784.72;;;614.25;;
61903;SDS011;47857;52.270;6.804;2023-09-30T11:05:56;401.65;;;287.77;;
61903;SDS011;47857;52.270;6.804;2023-09-30T11:08:21;382.40;;;266.95;;
61903;SDS011;47857;52.270;6.804;2023-09-30T11:10:48;376.85;;;286.58;;
61903;SDS011;47857;52.270;6.804;2023-09-30T11:13:16;381.70;;;253.15;;
61903;SDS011;47857;52.270;6.804;2023-09-30T11:15:41;338.27;;;213.30;;
61903;SDS011;47857;52.270;6.804;2023-09-30T11:18:15;511.40;;;274.13;;
61903;SDS011;47857;52.270;6.804;2023-09-30T11:20:42;1093.13;;;455.77;;
61903;SDS011;47857;52.270;6.804;2023-09-30T11:23:08;1956.28;;;707.60;;
61903;SDS011;47857;52.270;6.804;2023-09-30T11:25:35;1913.05;;;669.25;;
61903;SDS011;47857;52.270;6.804;2023-09-30T11:28:15;1999.90;;;967.30;;
61903;SDS011;47857;52.270;6.804;2023-09-30T11:30:54;1999.90;;;904.00;;
61903;SDS011;47857;52.270;6.804;2023-09-30T11:33:23;1999.90;;;897.83;;
61903;SDS011;47857;52.270;6.804;2023-09-30T11:35:56;1999.90;;;999.90;;
61903;SDS011;47857;52.270;6.804;2023-09-30T11:38:23;1999.90;;;747.03;;
61903;SDS011;47857;52.270;6.804;2023-09-30T11:40:58;1999.90;;;999.90;;
61903;SDS011;47857;52.270;6.804;2023-09-30T11:43:29;1999.90;;;999.90;;
61903;SDS011;47857;52.270;6.804;2023-09-30T11:48:30;1999.90;;;999.90;;
61903;SDS011;47857;52.270;6.804;2023-09-30T11:50:56;1999.90;;;999.90;;
61903;SDS011;47857;52.270;6.804;2023-09-30T11:53:25;1999.90;;;999.90;;
61903;SDS011;47857;52.270;6.804;2023-09-30T11:55:51;1999.90;;;999.90;;
61903;SDS011;47857;52.270;6.804;2023-09-30T11:58:20;1999.90;;;999.90;;
61903;SDS011;47857;52.270;6.804;2023-09-30T12:00:45;1999.90;;;999.90;;
61903;SDS011;47857;52.270;6.804;2023-09-30T12:03:11;1999.90;;;999.90;;
61903;SDS011;47857;52.270;6.804;2023-09-30T12:05:36;1999.90;;;999.90;;
61903;SDS011;47857;52.270;6.804;2023-09-30T12:08:02;1999.90;;;999.90;;
61903;SDS011;47857;52.270;6.804;2023-09-30T12:10:28;1999.90;;;999.90;;
61903;SDS011;47857;52.270;6.804;2023-09-30T12:12:53;1999.90;;;999.90;;
61903;SDS011;47857;52.270;6.804;2023-09-30T12:15:19;1999.90;;;999.90;;
61903;SDS011;47857;52.270;6.804;2023-09-30T12:17:45;1999.90;;;999.90;;
61903;SDS011;47857;52.270;6.804;2023-09-30T12:20:11;1999.90;;;809.25;;
61903;SDS011;47857;52.270;6.804;2023-09-30T12:22:39;1999.90;;;999.90;;
61903;SDS011;47857;52.270;6.804;2023-09-30T12:25:05;1999.90;;;999.90;;
61903;SDS011;47857;52.270;6.804;2023-09-30T12:27:31;1999.90;;;999.90;;
61903;SDS011;47857;52.270;6.804;2023-09-30T12:29:57;1999.90;;;999.90;;
61903;SDS011;47857;52.270;6.804;2023-09-30T12:32:23;1386.70;;;624.25;;
61903;SDS011;47857;52.270;6.804;2023-09-30T12:34:48;1999.90;;;999.90;;
61903;SDS011;47857;52.270;6.804;2023-09-30T12:37:14;1999.90;;;999.90;;
61903;SDS011;47857;52.270;6.804;2023-09-30T12:39:39;1999.90;;;999.90;;
61903;SDS011;47857;52.270;6.804;2023-09-30T12:42:05;1999.90;;;469.73;;
61903;SDS011;47857;52.270;6.804;2023-09-30T12:44:33;1999.90;;;573.80;;
61903;SDS011;47857;52.270;6.804;2023-09-30T12:46:59;1999.90;;;604.13;;
61903;SDS011;47857;52.270;6.804;2023-09-30T12:49:24;1999.90;;;754.72;;
61903;SDS011;47857;52.270;6.804;2023-09-30T12:51:50;1999.90;;;999.90;;
61903;SDS011;47857;52.270;6.804;2023-09-30T12:54:15;1999.90;;;988.60;;
61903;SDS011;47857;52.270;6.804;2023-09-30T12:56:43;1999.90;;;987.83;;
61903;SDS011;47857;52.270;6.804;2023-09-30T12:59:09;1999.90;;;870.95;;
61903;SDS011;47857;52.270;6.804;2023-09-30T13:01:34;1999.90;;;807.00;;
61903;SDS011;47857;52.270;6.804;2023-09-30T13:04:00;1999.90;;;981.55;;
61903;SDS011;47857;52.270;6.804;2023-09-30T13:06:26;1999.90;;;730.05;;
61903;SDS011;47857;52.270;6.804;2023-09-30T13:08:51;1999.90;;;627.45;;
61903;SDS011;47857;52.270;6.804;2023-09-30T13:11:17;1999.90;;;708.35;;
61903;SDS011;47857;52.270;6.804;2023-09-30T13:13:43;1999.90;;;811.28;;
61903;SDS011;47857;52.270;6.804;2023-09-30T13:16:11;1999.90;;;564.65;;
61903;SDS011;47857;52.270;6.804;2023-09-30T13:18:36;1999.90;;;878.63;;
61903;SDS011;47857;52.270;6.804;2023-09-30T13:21:02;1999.90;;;554.83;;
61903;SDS011;47857;52.270;6.804;2023-09-30T13:23:31;1999.90;;;700.67;;
61903;SDS011;47857;52.270;6.804;2023-09-30T13:25:56;1999.90;;;999.90;;
61903;SDS011;47857;52.270;6.804;2023-09-30T13:28:22;1999.90;;;518.53;;
61903;SDS011;47857;52.270;6.804;2023-09-30T13:30:47;1999.90;;;697.00;;
61903;SDS011;47857;52.270;6.804;2023-09-30T13:33:13;1999.90;;;905.92;;
61903;SDS011;47857;52.270;6.804;2023-09-30T13:35:38;1999.90;;;570.53;;
61903;SDS011;47857;52.270;6.804;2023-09-30T13:38:04;1999.90;;;964.63;;
61903;SDS011;47857;52.270;6.804;2023-09-30T13:40:30;1999.90;;;997.33;;
61903;SDS011;47857;52.270;6.804;2023-09-30T13:42:55;1999.90;;;923.97;;
61903;SDS011;47857;52.270;6.804;2023-09-30T13:45:22;1999.90;;;999.90;;
61903;SDS011;47857;52.270;6.804;2023-09-30T13:47:48;1999.90;;;999.90;;
61903;SDS011;47857;52.270;6.804;2023-09-30T13:50:13;1999.90;;;999.90;;
61903;SDS011;47857;52.270;6.804;2023-09-30T13:52:39;1999.90;;;999.90;;
61903;SDS011;47857;52.270;6.804;2023-09-30T13:55:04;1999.90;;;999.90;;
61903;SDS011;47857;52.270;6.804;2023-09-30T13:57:30;1999.90;;;999.90;;
61903;SDS011;47857;52.270;6.804;2023-09-30T13:59:56;1999.90;;;999.90;;
61903;SDS011;47857;52.270;6.804;2023-09-30T14:02:21;1999.90;;;940.45;;
61903;SDS011;47857;52.270;6.804;2023-09-30T14:04:48;1999.90;;;999.90;;
61903;SDS011;47857;52.270;6.804;2023-09-30T14:07:14;1999.90;;;966.65;;
61903;SDS011;47857;52.270;6.804;2023-09-30T14:09:39;1999.90;;;999.90;;
61903;SDS011;47857;52.270;6.804;2023-09-30T14:12:05;1999.90;;;999.90;;
61903;SDS011;47857;52.270;6.804;2023-09-30T14:14:31;1999.90;;;999.90;;
61903;SDS011;47857;52.270;6.804;2023-09-30T14:16:58;1999.90;;;999.90;;
61903;SDS011;47857;52.270;6.804;2023-09-30T14:19:23;1999.90;;;999.90;;
61903;SDS011;47857;52.270;6.804;2023-09-30T14:21:49;1999.90;;;874.75;;
61903;SDS011;47857;52.270;6.804;2023-09-30T14:24:14;1999.90;;;999.90;;